Time;durP1;ratioP1;P1;durP2;ratioP2;P2;SDS_P1;SDS_P2;PMS_P1;PMS_P2;Temp;Humidity;BMP_temperature;BMP_pressure;BME280_temperature;BME280_humidity;BME280_pressure;Samples;Min_cycle;Max_cycle;Signal;HPM_P1;HPM_P2
2022/08/11 00:01:20;;;;;;;2.15;1.10;;;;;;;20.42;52.94;99539.16;6198442;23;20347;-92
2022/08/11 00:03:49;;;;;;;3.13;0.90;;;;;;;20.25;53.53;99550.97;6193245;23;20004;-93
2022/08/11 00:06:26;;;;;;;3.80;1.00;;;;;;;20.22;53.70;99542.66;6195270;23;20007;-91
2022/08/11 00:08:54;;;;;;;1.92;0.90;;;;;;;20.16;53.79;99540.06;6195418;23;20077;-93
2022/08/11 00:11:45;;;;;;;1.60;1.10;;;;;;;20.08;54.39;99540.13;6197138;23;20467;-92
2022/08/11 00:14:25;;;;;;;4.93;1.35;;;;;;;20.10;53.90;99532.41;6169802;23;20024;-92
2022/08/11 00:16:57;;;;;;;1.15;0.98;;;;;;;20.26;53.69;99551.78;6197308;23;20011;-92
2022/08/11 00:19:34;;;;;;;2.83;1.35;;;;;;;20.02;53.89;99514.88;6246439;23;20055;-92
2022/08/11 00:22:00;;;;;;;1.50;0.93;;;;;;;20.17;53.80;99540.88;6244817;23;20462;-92
2022/08/11 00:24:38;;;;;;;1.95;1.10;;;;;;;20.12;53.82;99543.81;6195224;23;20000;-92
2022/08/11 00:27:05;;;;;;;5.03;1.40;;;;;;;19.95;54.36;99533.75;6171525;23;20007;-92
2022/08/11 00:29:31;;;;;;;2.25;1.10;;;;;;;19.94;54.46;99538.41;6245872;23;20000;-91
2022/08/11 00:32:00;;;;;;;3.55;1.30;;;;;;;19.81;54.60;99525.75;6195010;23;20003;-92
2022/08/11 00:34:33;;;;;;;1.80;1.08;;;;;;;19.87;54.08;99526.38;6170932;23;19996;-92
2022/08/11 00:37:05;;;;;;;2.40;1.10;;;;;;;19.89;54.51;99545.97;6220524;23;20004;-92
2022/08/11 00:39:32;;;;;;;;;;;;;;;19.86;54.45;99550.19;6219951;23;20019;-93
2022/08/11 00:42:06;;;;;;;1.48;1.00;;;;;;;19.81;54.05;99533.94;6246872;23;19907;-92
2022/08/11 00:45:09;;;;;;;2.90;1.45;;;;;;;19.79;54.18;99553.38;6220600;23;20003;-92
2022/08/11 00:47:58;;;;;;;1.65;1.10;;;;;;;19.79;54.29;99555.31;6194209;23;20024;-93
2022/08/11 00:50:48;;;;;;;1.35;0.90;;;;;;;19.71;54.70;99553.41;6198343;23;20465;-92
2022/08/11 00:53:38;;;;;;;3.78;1.50;;;;;;;19.71;54.67;99547.94;6219183;23;20000;-92
2022/08/11 00:56:16;;;;;;;2.30;1.23;;;;;;;19.70;54.76;99547.16;6219305;23;20427;-92
2022/08/11 00:59:11;;;;;;;1.30;0.90;;;;;;;19.70;54.78;99554.53;6245633;23;20004;-92
2022/08/11 01:01:37;;;;;;;1.73;1.10;;;;;;;19.66;54.99;99554.38;6219462;23;20466;-92
2022/08/11 01:04:21;;;;;;;1.92;1.10;;;;;;;19.65;54.95;99546.47;6219704;23;20004;-92
2022/08/11 01:06:49;;;;;;;1.85;1.20;;;;;;;19.74;54.39;99553.56;6219847;23;20526;-93
2022/08/11 01:09:52;;;;;;;1.60;1.00;;;;;;;19.76;53.94;99550.53;6219978;23;20128;-93
2022/08/11 01:12:38;;;;;;;2.35;1.23;;;;;;;19.55;54.61;99548.44;6220205;23;20000;-92
2022/08/11 01:15:28;;;;;;;0.80;0.80;;;;;;;19.49;54.53;99538.81;6195535;23;20008;-92
2022/08/11 01:18:31;;;;;;;2.30;1.27;;;;;;;19.67;54.39;99546.97;6219990;23;20020;-92
2022/08/11 01:21:21;;;;;;;2.13;1.10;;;;;;;19.67;54.70;99552.41;6219678;23;20351;-93
2022/08/11 01:24:24;;;;;;;1.35;1.00;;;;;;;19.62;54.71;99549.88;6246509;23;19996;-92
2022/08/11 01:27:17;;;;;;;1.52;1.10;;;;;;;19.58;54.62;99539.59;6218350;23;20011;-93
2022/08/11 01:30:19;;;;;;;2.30;1.30;;;;;;;19.64;54.52;99531.22;6243984;23;20099;-93
2022/08/11 01:33:08;;;;;;;1.40;1.10;;;;;;;19.61;55.17;99553.72;6219051;23;20035;-92
2022/08/11 01:36:04;;;;;;;1.20;1.00;;;;;;;19.55;55.28;99545.72;6218710;23;20011;-91
2022/08/11 01:39:21;;;;;;;1.40;1.08;;;;;;;19.64;54.50;99542.97;6218534;23;20000;-93
2022/08/11 01:45:13;;;;;;;1.33;1.10;;;;;;;19.56;54.68;99541.03;6245482;23;20041;-91
2022/08/11 01:47:53;;;;;;;1.88;1.10;;;;;;;19.42;54.74;99522.09;6245000;22;20621;-92
2022/08/11 01:50:46;;;;;;;1.23;0.90;;;;;;;19.49;55.16;99535.28;6219048;23;20011;-92
2022/08/11 01:53:25;;;;;;;1.83;1.20;;;;;;;19.39;55.82;99528.22;6219423;23;20343;-92
2022/08/11 01:56:04;;;;;;;1.88;1.20;;;;;;;19.32;55.91;99526.00;6171001;23;20011;-92
2022/08/11 01:59:02;;;;;;;1.67;1.10;;;;;;;19.35;56.46;99525.31;6195659;23;19993;-92
2022/08/11 02:01:57;;;;;;;1.70;1.20;;;;;;;19.25;56.78;99520.19;6218429;23;20008;-92
2022/08/11 02:05:17;;;;;;;1.40;1.08;;;;;;;19.30;57.34;99532.88;6198078;23;20004;-92
2022/08/11 02:08:22;;;;;;;1.50;1.02;;;;;;;19.25;56.98;99508.47;6157649;23;20044;-93
2022/08/11 02:11:33;;;;;;;1.80;1.30;;;;;;;19.35;56.90;99533.53;6197890;23;20003;-92
2022/08/11 02:14:12;;;;;;;3.17;1.30;;;;;;;19.34;55.68;99515.53;6153223;23;20444;-92
2022/08/11 02:17:11;;;;;;;2.90;1.20;;;;;;;19.40;56.52;99521.63;6233743;23;20086;-92
2022/08/11 02:25:58;;;;;;;2.80;1.15;;;;;;;19.17;57.65;99519.09;6244976;23;20011;-93
2022/08/11 02:28:34;;;;;;;2.85;1.20;;;;;;;19.23;58.43;99538.81;6169739;23;20020;-92
2022/08/11 02:33:50;;;;;;;2.90;1.10;;;;;;;18.95;58.61;99538.38;6245583;23;20026;-93
2022/08/11 02:36:27;;;;;;;4.38;1.30;;;;;;;18.90;58.64;99543.97;6167583;23;20085;-92
2022/08/11 02:39:05;;;;;;;2.05;1.52;;;;;;;18.85;59.11;99544.13;6220147;23;20334;-92
2022/08/11 02:44:35;;;;;;;2.28;1.27;;;;;;;18.70;59.49;99545.38;6223189;23;20350;-92
2022/08/11 02:47:22;;;;;;;3.17;1.20;;;;;;;18.64;59.89;99539.25;6218494;23;20412;-92
2022/08/11 02:49:53;;;;;;;2.17;1.48;;;;;;;18.47;60.53;99525.56;6218297;23;20518;-92
2022/08/11 02:52:30;;;;;;;2.20;1.40;;;;;;;18.52;61.10;99526.22;6194381;23;20012;-92
2022/08/11 02:55:10;;;;;;;1.33;1.13;;;;;;;18.56;60.77;99537.31;6194036;23;20004;-92
2022/08/11 02:57:45;;;;;;;4.22;1.30;;;;;;;18.46;61.86;99513.06;6218124;23;20004;-92
2022/08/11 03:00:13;;;;;;;5.05;1.30;;;;;;;18.37;61.46;99508.41;6169378;23;20012;-93
2022/08/11 03:02:48;;;;;;;2.55;1.50;;;;;;;18.46;61.92;99526.69;6193425;23;20012;-92
2022/08/11 03:05:19;;;;;;;1.33;1.20;;;;;;;18.27;61.46;99516.06;6241441;23;20100;-92
2022/08/11 03:08:06;;;;;;;2.22;1.42;;;;;;;18.37;62.02;99534.84;6246854;23;20081;-93
2022/08/11 03:17:37;;;;;;;2.40;1.35;;;;;;;18.26;62.29;99522.63;6246684;23;20011;-92
2022/08/11 03:20:39;;;;;;;2.17;1.30;;;;;;;18.22;62.40;99513.47;6220612;23;20012;-92
2022/08/11 03:23:30;;;;;;;6.53;1.43;;;;;;;18.22;62.58;99518.91;6220159;23;20032;-91
2022/08/11 03:26:31;;;;;;;1.95;1.30;;;;;;;18.09;62.32;99510.53;6194989;23;20231;-93
2022/08/11 03:29:23;;;;;;;2.65;1.52;;;;;;;17.97;62.63;99496.72;6173404;23;20007;-92
2022/08/11 03:31:54;;;;;;;1.95;1.50;;;;;;;18.11;62.76;99515.69;6196134;23;20004;-91
2022/08/11 03:34:24;;;;;;;3.57;1.53;;;;;;;18.05;62.84;99514.22;6220256;23;20007;-92
2022/08/11 03:37:10;;;;;;;1.58;1.40;;;;;;;18.07;62.96;99531.84;6169897;23;20326;-92
2022/08/11 03:39:55;;;;;;;2.13;1.40;;;;;;;18.07;62.76;99529.13;6247588;23;20024;-92
2022/08/11 03:42:40;;;;;;;2.63;2.17;;;;;;;18.04;63.18;99528.97;6220974;23;20035;-91
2022/08/11 03:45:12;;;;;;;3.30;1.98;;;;;;;18.01;62.84;99529.59;6221328;23;19999;-91
2022/08/11 03:47:53;;;;;;;2.85;1.33;;;;;;;18.00;62.38;99534.25;6220199;23;20011;-91
2022/08/11 03:50:37;;;;;;;2.92;1.50;;;;;;;17.96;62.86;99527.81;6246919;23;20008;-91
2022/08/11 03:53:36;;;;;;;1.65;1.33;;;;;;;17.91;62.88;99527.97;6219831;23;20054;-91
2022/08/11 03:56:31;;;;;;;2.40;1.48;;;;;;;17.92;63.06;99524.91;6220618;23;20482;-92
2022/08/11 03:59:24;;;;;;;2.60;1.45;;;;;;;17.93;62.89;99531.97;6192564;23;20038;-91
2022/08/11 04:02:18;;;;;;;5.07;1.40;;;;;;;17.92;62.81;99535.00;6248126;23;20316;-91
2022/08/11 04:04:55;;;;;;;5.47;1.58;;;;;;;17.89;62.94;99536.44;6224582;23;19996;-93
2022/08/11 04:07:33;;;;;;;1.92;1.48;;;;;;;17.96;62.78;99536.78;6219759;23;20415;-93
2022/08/11 04:10:20;;;;;;;6.60;1.58;;;;;;;17.95;63.13;99540.63;6222941;23;20058;-93
2022/08/11 04:13:00;;;;;;;2.47;1.60;;;;;;;17.97;63.48;99546.56;6247818;23;20011;-92
2022/08/11 04:16:03;;;;;;;2.60;1.80;;;;;;;18.04;63.43;99546.13;6247810;23;20000;-94
2022/08/11 04:19:06;;;;;;;2.33;1.40;;;;;;;18.05;63.62;99538.75;6249334;23;20023;-92
2022/08/11 04:21:35;;;;;;;2.92;2.30;;;;;;;18.12;63.44;99539.91;6249436;23;20067;-93
2022/08/11 04:24:07;;;;;;;3.92;1.90;;;;;;;18.16;62.71;99549.06;6221560;23;20000;-92
2022/08/11 04:26:52;;;;;;;5.05;2.03;;;;;;;18.08;62.97;99528.03;6248190;23;20004;-91
2022/08/11 04:30:02;;;;;;;2.30;1.40;;;;;;;18.23;62.83;99540.41;6171445;23;20000;-91
2022/08/11 04:32:57;;;;;;;4.38;1.98;;;;;;;18.34;62.38;99547.22;6197181;23;20018;-92
2022/08/11 04:35:32;;;;;;;1.98;1.40;;;;;;;18.40;62.25;99544.31;6199360;23;20010;-92
2022/08/11 04:38:23;;;;;;;6.47;1.70;;;;;;;18.28;62.27;99521.22;6220517;23;20007;-92
2022/08/11 04:40:55;;;;;;;4.27;1.40;;;;;;;18.50;62.06;99544.03;6198793;23;20009;-91
2022/08/11 04:43:36;;;;;;;5.13;1.85;;;;;;;18.43;62.48;99532.78;6195588;23;20000;-91
2022/08/11 04:46:12;;;;;;;7.70;2.17;;;;;;;18.56;62.73;99538.09;6225525;23;20111;-94
2022/08/11 05:01:42;;;;;;;5.22;2.00;;;;;;;19.02;61.10;99540.59;6217287;23;20521;-93
2022/08/11 05:07:44;;;;;;;5.03;2.30;;;;;;;19.07;60.86;99543.16;6177309;23;20439;-92
2022/08/11 05:10:41;;;;;;;3.10;1.90;;;;;;;19.15;61.03;99543.19;6189177;23;20421;-91
2022/08/11 05:36:56;;;;;;;1.93;1.40;;;;;;;20.11;56.71;99518.41;6241906;23;19995;-94
2022/08/11 05:56:16;;;;;;;8.70;2.40;;;;;;;20.49;55.48;99525.75;6200745;23;20084;-90
2022/08/11 05:58:43;;;;;;;16.23;2.63;;;;;;;20.50;56.01;99519.16;6201893;23;20000;-91
2022/08/11 06:01:12;;;;;;;15.35;3.05;;;;;;;20.53;55.98;99528.63;6168399;23;20103;-89
2022/08/11 06:06:40;;;;;;;2.28;1.73;;;;;;;20.68;55.30;99503.44;6228586;23;20109;-94
2022/08/11 06:09:06;;;;;;;3.05;1.80;;;;;;;20.80;54.89;99516.41;6197539;23;20496;-90
2022/08/11 06:11:38;;;;;;;4.18;2.22;;;;;;;20.88;54.02;99518.28;6194446;23;20004;-90
2022/08/11 06:14:05;;;;;;;2.33;1.73;;;;;;;20.91;53.95;99511.34;6218899;23;20010;-90
2022/08/11 06:16:30;;;;;;;2.83;1.70;;;;;;;20.86;53.78;99511.56;6168715;23;20442;-90
2022/08/11 06:18:56;;;;;;;4.25;1.88;;;;;;;20.96;53.78;99503.72;6192861;23;20004;-89
2022/08/11 06:21:23;;;;;;;3.38;1.63;;;;;;;21.27;53.01;99513.47;6219985;23;20061;-91
2022/08/11 06:23:49;;;;;;;2.88;1.70;;;;;;;21.26;52.65;99489.13;6194449;23;20075;-90
2022/08/11 06:26:16;;;;;;;7.47;3.35;;;;;;;21.58;52.86;99507.53;6193614;23;20030;-89
2022/08/11 06:28:48;;;;;;;14.07;4.70;;;;;;;21.69;52.21;99485.97;6168581;23;20000;-90
2022/08/11 06:31:19;;;;;;;5.10;2.92;;;;;;;21.83;50.08;99507.59;6220640;23;20418;-90
2022/08/11 06:34:22;;;;;;;6.90;4.50;;;;;;;21.87;50.50;99504.94;6194632;23;20379;-91
2022/08/11 06:37:30;;;;;;;5.43;2.50;;;;;;;22.03;50.93;99505.09;6219932;23;20008;-93
2022/08/11 06:43:59;;;;;;;3.05;1.73;;;;;;;22.19;48.91;99486.81;6191578;23;20094;-91
2022/08/11 06:46:50;;;;;;;;;;;;;;;22.23;49.21;99501.47;6217499;23;20000;-92
2022/08/11 06:52:32;;;;;;;2.45;1.70;;;;;;;22.23;49.63;99493.22;6168103;23;20052;-96
2022/08/11 07:00:26;;;;;;;1.67;1.38;;;;;;;22.24;48.25;99463.84;6126859;23;20427;-90
2022/08/11 07:01:47;;;;;;;7.15;4.00;;;;;;;22.44;49.25;99501.31;6121438;23;20057;-96
2022/08/11 07:04:20;;;;;;;3.92;2.15;;;;;;;22.47;48.66;99486.09;6106312;23;20322;-88
2022/08/11 07:28:58;;;;;;;5.95;3.17;;;;;;;22.94;46.79;99483.59;6223251;23;20027;-95
2022/08/11 07:32:08;;;;;;;6.03;2.58;;;;;;;23.05;46.92;99496.84;6169626;23;19989;-94
2022/08/11 07:34:39;;;;;;;2.55;1.80;;;;;;;23.16;46.15;99496.03;6146140;23;20041;-92
2022/08/11 07:40:51;;;;;;;2.53;1.73;;;;;;;23.64;45.41;99504.38;6064770;23;20037;-94
2022/08/11 07:44:08;;;;;;;4.40;1.90;;;;;;;23.84;45.30;99512.72;6062489;23;20437;-90
2022/08/11 07:52:36;;;;;;;4.80;3.35;;;;;;;23.91;44.26;99471.69;6031508;23;20021;-93
2022/08/11 07:55:15;;;;;;;2.30;1.80;;;;;;;23.99;44.48;99470.69;6024797;23;20050;-94
2022/08/11 08:18:24;;;;;;;3.63;1.65;;;;;;;24.48;43.00;99459.22;6212292;23;20020;-96
2022/08/11 08:21:16;;;;;;;3.35;2.40;;;;;;;24.19;43.45;99463.28;6160276;23;20021;-96
2022/08/11 08:24:28;;;;;;;2.30;1.60;;;;;;;24.26;43.15;99457.13;6112541;23;20005;-95
2022/08/11 08:27:00;;;;;;;2.42;1.45;;;;;;;24.15;43.38;99460.44;6112503;23;20002;-95
2022/08/11 08:32:16;;;;;;;2.58;1.88;;;;;;;24.44;42.97;99468.56;6117728;23;20081;-94
2022/08/11 08:34:41;;;;;;;3.67;2.75;;;;;;;24.58;42.48;99464.19;6135884;23;20559;-94
2022/08/11 08:37:07;;;;;;;26.67;17.98;;;;;;;24.61;42.07;99465.41;6085070;23;19998;-96
2022/08/11 08:39:44;;;;;;;5.05;2.13;;;;;;;24.80;42.67;99472.94;6092471;23;20524;-94
2022/08/11 08:42:10;;;;;;;3.85;1.60;;;;;;;24.94;41.14;99466.88;6116422;23;20053;-96
2022/08/11 08:44:57;;;;;;;3.50;2.03;;;;;;;24.97;42.03;99472.47;6092940;23;20025;-95
2022/08/11 08:47:36;;;;;;;2.80;1.50;;;;;;;25.16;41.19;99459.84;6106828;23;20006;-95
2022/08/11 08:50:18;;;;;;;20.75;13.38;;;;;;;25.38;40.84;99463.81;6141018;23;20005;-95
2022/08/11 08:52:53;;;;;;;5.32;2.83;;;;;;;25.65;40.07;99450.94;6145555;23;20001;-96
2022/08/11 08:56:03;;;;;;;3.60;2.13;;;;;;;25.61;39.96;99472.91;6199008;23;20078;-95
2022/08/11 09:02:36;;;;;;;2.75;1.55;;;;;;;25.61;40.18;99455.59;6148536;23;20009;-95
2022/08/11 09:05:02;;;;;;;5.72;1.98;;;;;;;25.68;39.81;99446.63;6125402;23;20009;-96
2022/08/11 09:07:36;;;;;;;2.20;1.45;;;;;;;25.51;40.42;99442.41;6150407;23;20065;-95
2022/08/11 09:10:04;;;;;;;1.85;1.60;;;;;;;25.24;40.32;99436.03;6129639;23;20006;-96
2022/08/11 09:12:36;;;;;;;3.10;1.75;;;;;;;25.33;41.60;99464.13;6122553;23;20041;-96
2022/08/11 09:15:06;;;;;;;;;;;;;;;25.66;40.32;99462.75;6144633;23;20012;-96
2022/08/11 09:17:53;;;;;;;2.58;1.67;;;;;;;25.30;39.96;99432.59;6147903;23;19900;-96
2022/08/11 09:20:25;;;;;;;4.38;2.70;;;;;;;25.43;40.15;99435.16;6091622;23;20017;-96
2022/08/11 09:28:52;;;;;;;1.88;1.40;;;;;;;25.77;39.33;99447.16;6158485;23;20010;-94
2022/08/11 09:31:21;;;;;;;5.47;2.88;;;;;;;25.77;39.51;99438.88;6205298;22;20059;-96
2022/08/11 09:42:31;;;;;;;;;;;;;;;;;;;;;
2022/08/11 09:47:36;;;;;;;1.48;1.30;;;;;;;25.78;38.60;99421.97;6267808;22;20027;-95
2022/08/11 09:50:07;;;;;;;13.82;7.22;;;;;;;26.16;38.86;99422.97;6228364;22;20017;-95
2022/08/11 09:52:35;;;;;;;2.73;2.00;;;;;;;26.19;39.14;99404.88;6210643;22;20004;-94
2022/08/11 09:55:01;;;;;;;2.70;1.60;;;;;;;26.29;38.36;99415.25;6205548;22;20234;-94
2022/08/11 10:00:44;;;;;;;1.95;1.27;;;;;;;26.44;38.09;99404.41;6245638;22;20065;-96
2022/08/11 10:03:31;;;;;;;2.00;1.40;;;;;;;26.00;38.42;99398.31;6294541;22;20004;-95
2022/08/11 10:09:09;;;;;;;2.28;1.55;;;;;;;26.56;36.72;99385.66;6176709;23;20028;-96
2022/08/11 10:12:03;;;;;;;2.63;1.67;;;;;;;27.02;35.81;99421.31;6153550;23;20067;-96
2022/08/11 10:17:18;;;;;;;3.30;1.60;;;;;;;27.30;36.78;99402.66;6169886;23;20027;-94
2022/08/11 10:19:50;;;;;;;2.38;1.48;;;;;;;27.39;36.16;99400.38;6153158;23;20009;-96
2022/08/11 10:27:58;;;;;;;3.10;1.88;;;;;;;27.27;36.21;99393.16;6107213;23;20070;-96
2022/08/11 10:36:01;;;;;;;2.17;1.30;;;;;;;27.30;35.59;99391.59;6252122;22;20031;-95
2022/08/11 10:38:31;;;;;;;1.63;1.20;;;;;;;27.74;35.04;99410.16;6184778;22;19992;31
2022/08/11 10:43:42;;;;;;;1.48;1.20;;;;;;;27.26;35.28;99383.28;6112707;23;20025;-95
2022/08/11 10:48:56;;;;;;;1.80;1.20;;;;;;;27.34;34.94;99390.47;6111307;23;20064;-94
2022/08/11 10:59:47;;;;;;;3.03;2.38;;;;;;;27.70;34.29;99382.44;6108378;23;20036;-94
2022/08/11 11:02:17;;;;;;;1.85;1.27;;;;;;;27.68;34.36;99390.34;6088113;23;20005;-96
2022/08/11 11:05:23;;;;;;;3.03;1.30;;;;;;;27.75;34.34;99381.31;6089046;23;20002;-95
2022/08/11 11:11:00;;;;;;;3.75;2.08;;;;;;;27.56;35.00;99374.06;6122888;23;20050;-96
2022/08/11 11:18:57;;;;;;;3.03;2.35;;;;;;;27.93;33.64;99384.22;6097675;23;20528;-93
2022/08/11 11:21:23;;;;;;;1.88;1.30;;;;;;;27.83;33.14;99363.59;6074862;23;20006;-92
2022/08/11 11:23:59;;;;;;;2.65;1.30;;;;;;;27.64;34.07;99370.16;6053261;23;20111;-93
2022/08/11 11:26:40;;;;;;;2.35;1.50;;;;;;;27.89;33.70;99369.56;6077021;23;20011;-95
2022/08/11 11:29:24;;;;;;;1.75;1.25;;;;;;;27.89;33.84;99377.88;6076962;23;20003;-94
2022/08/11 11:31:52;;;;;;;2.35;1.52;;;;;;;27.74;34.02;99374.97;6102953;23;20012;-90
2022/08/11 11:34:20;;;;;;;8.27;5.30;;;;;;;27.55;34.61;99373.25;6101007;23;20365;-93
2022/08/11 11:36:52;;;;;;;2.10;1.30;;;;;;;27.78;34.17;99361.94;6103607;23;20038;-93
2022/08/11 11:39:20;;;;;;;1.80;1.30;;;;;;;27.60;33.87;99367.38;6065183;23;20065;-92
2022/08/11 11:41:51;;;;;;;1.60;1.17;;;;;;;27.67;34.16;99358.31;6100855;23;20433;-92
2022/08/11 11:44:17;;;;;;;3.00;1.65;;;;;;;27.61;34.06;99362.63;6103273;23;20464;-93
2022/08/11 11:46:45;;;;;;;2.05;1.58;;;;;;;27.67;33.94;99374.13;6118740;23;20002;-93
2022/08/11 11:49:39;;;;;;;1.40;1.10;;;;;;;27.69;33.78;99366.25;6080801;23;20375;-95
2022/08/11 11:52:07;;;;;;;1.83;1.35;;;;;;;27.72;33.79;99357.97;6108264;23;20069;-94
2022/08/11 11:54:34;;;;;;;2.53;1.23;;;;;;;27.79;33.67;99358.03;6087061;23;20006;-95
2022/08/11 12:03:05;;;;;;;2.63;1.38;;;;;;;27.81;34.11;99346.56;6107297;23;20077;-95
2022/08/11 12:05:33;;;;;;;3.42;1.60;;;;;;;28.02;33.23;99355.03;6079849;23;20032;-94
2022/08/11 12:08:16;;;;;;;3.03;1.50;;;;;;;27.88;33.73;99354.94;6077999;23;19997;-93
2022/08/11 12:13:57;;;;;;;;;;;;;;;28.03;33.85;99377.94;6132476;23;20016;-95
2022/08/11 12:16:26;;;;;;;1.55;1.27;;;;;;;27.92;33.23;99346.66;6130491;23;19928;-94
2022/08/11 12:19:16;;;;;;;3.92;1.45;;;;;;;28.02;33.12;99345.94;6081426;23;20006;-95
2022/08/11 12:46:52;;;;;;;1.40;1.10;;;;;;;27.99;33.48;99353.03;6106502;23;20014;-93
2022/08/11 12:52:07;;;;;;;5.25;1.60;;;;;;;27.95;33.06;99324.56;6106150;23;20013;-95
2022/08/11 12:54:45;;;;;;;1.65;1.17;;;;;;;28.21;33.18;99342.84;6078126;23;20356;-90
2022/08/11 13:05:31;;;;;;;1.90;1.30;;;;;;;27.98;32.65;99325.75;6104642;23;20012;-93
2022/08/11 13:07:57;;;;;;;2.75;1.13;;;;;;;27.92;33.01;99311.47;6125965;23;20001;-91
2022/08/11 13:13:07;;;;;;;1.65;1.30;;;;;;;28.07;32.95;99331.72;6126806;23;20069;-93
2022/08/11 13:15:33;;;;;;;3.20;1.90;;;;;;;28.19;33.24;99320.31;6100996;23;20002;-94
2022/08/11 13:17:58;;;;;;;8.82;1.80;;;;;;;28.18;33.21;99324.25;6077947;23;20472;-93
2022/08/11 13:20:24;;;;;;;1.40;1.20;;;;;;;28.26;32.65;99327.06;6125623;23;20002;-93
2022/08/11 13:23:06;;;;;;;3.05;1.20;;;;;;;27.98;32.90;99340.38;6076575;23;20005;-94
2022/08/11 13:25:32;;;;;;;1.95;1.30;;;;;;;28.08;32.66;99318.66;6078800;23;20006;-91
2022/08/11 13:27:59;;;;;;;2.10;1.30;;;;;;;28.07;32.93;99312.34;6102433;23;19994;-92
2022/08/11 13:33:11;;;;;;;2.10;1.67;;;;;;;27.88;33.61;99315.41;6104471;23;20088;-91
2022/08/11 13:35:37;;;;;;;2.20;1.70;;;;;;;27.75;33.57;99314.91;6079502;23;20010;-92
2022/08/11 13:38:05;;;;;;;2.35;1.25;;;;;;;27.75;33.19;99301.88;6102040;23;20010;-93
2022/08/11 13:40:34;;;;;;;1.40;1.20;;;;;;;27.97;33.00;99313.88;6100956;23;20470;-93
2022/08/11 13:43:02;;;;;;;4.63;1.63;;;;;;;27.67;33.44;99316.03;6077797;23;20026;-90
2022/08/11 13:45:28;;;;;;;2.80;1.60;;;;;;;28.15;32.70;99305.66;6102654;23;19998;-93
2022/08/11 13:47:57;;;;;;;4.00;2.95;;;;;;;28.39;31.85;99311.69;6101572;23;20001;-95
2022/08/11 13:51:29;;;;;;;10.43;6.28;;;;;;;28.45;32.31;99309.31;6077449;23;20021;-93
2022/08/11 13:53:12;;;;;;;10.40;5.93;;;;;;;28.70;32.84;99299.13;6105413;23;20009;-91
2022/08/11 13:55:50;;;;;;;2.55;1.55;;;;;;;28.94;30.64;99311.44;6102184;23;20092;-94
2022/08/11 13:58:24;;;;;;;5.22;2.42;;;;;;;29.18;31.44;99289.72;6084030;23;20010;-96
2022/08/11 14:00:50;;;;;;;4.30;1.65;;;;;;;29.62;31.28;99313.44;6078372;23;20399;-91
2022/08/11 14:06:39;;;;;;;4.35;2.55;;;;;;;29.96;29.99;99291.56;6126974;23;20455;-91
2022/08/11 14:09:07;;;;;;;3.33;1.45;;;;;;;29.61;29.73;99289.63;6100174;23;19998;-92
2022/08/11 14:14:20;;;;;;;3.08;1.70;;;;;;;30.09;29.19;99288.34;6124318;23;20064;-91
2022/08/11 14:16:46;;;;;;;2.25;1.73;;;;;;;30.00;29.00;99286.78;6124098;23;20085;-91
2022/08/11 14:19:12;;;;;;;3.45;1.80;;;;;;;30.26;29.11;99301.38;6123541;23;20006;-90
2022/08/11 14:24:25;;;;;;;2.17;1.60;;;;;;;30.59;28.19;99288.91;6103839;23;20013;-92
2022/08/11 14:26:51;;;;;;;4.30;1.75;;;;;;;30.53;27.71;99284.97;6099533;23;20010;-92
2022/08/11 14:29:18;;;;;;;4.18;2.38;;;;;;;30.77;27.31;99296.34;6125246;23;20125;-91
2022/08/11 14:31:45;;;;;;;4.35;3.42;;;;;;;30.86;27.31;99281.97;6099228;23;19998;-92
2022/08/11 14:34:13;;;;;;;3.72;2.58;;;;;;;30.96;27.25;99281.94;6124311;23;20002;-92
2022/08/11 14:36:42;;;;;;;3.20;2.40;;;;;;;31.10;26.36;99267.13;6100751;23;20413;-93
2022/08/11 14:39:12;;;;;;;2.80;2.30;;;;;;;31.26;27.00;99288.06;6100019;23;20029;-90
2022/08/11 14:47:16;;;;;;;3.00;1.70;;;;;;;31.86;25.91;99297.81;6105869;23;20068;-92
2022/08/11 14:49:42;;;;;;;2.10;1.67;;;;;;;32.05;25.34;99270.59;6100877;23;20014;-92
2022/08/11 14:52:14;;;;;;;2.90;1.55;;;;;;;32.12;25.12;99274.03;6100007;23;20030;-94
2022/08/11 14:57:34;;;;;;;2.53;1.92;;;;;;;32.31;25.15;99278.22;6103172;23;20008;-92
2022/08/11 15:00:01;;;;;;;2.03;1.25;;;;;;;32.73;24.12;99272.47;6074968;23;20349;-92
2022/08/11 15:05:10;;;;;;;1.92;1.35;;;;;;;32.81;24.27;99266.34;6105780;23;20012;-92
2022/08/11 15:07:39;;;;;;;2.00;1.40;;;;;;;32.59;24.20;99262.31;6077296;23;20006;-92
2022/08/11 15:10:05;;;;;;;1.92;1.23;;;;;;;33.06;23.76;99264.34;6078436;23;20002;-91
2022/08/11 15:12:32;;;;;;;2.08;1.38;;;;;;;33.28;23.21;99254.44;6101240;23;20030;-92
2022/08/11 15:17:44;;;;;;;2.35;1.30;;;;;;;32.21;24.98;99248.50;6105385;23;20068;-93
2022/08/11 15:25:43;;;;;;;3.03;1.30;;;;;;;30.05;27.33;99260.59;6105570;23;20126;-92
2022/08/11 15:39:18;;;;;;;1.27;1.10;;;;;;;28.45;30.90;99246.38;6105292;23;20021;-89
2022/08/11 15:47:41;;;;;;;2.15;1.60;;;;;;;27.97;31.77;99252.19;6104763;23;20009;-90
2022/08/11 15:50:07;;;;;;;2.75;1.30;;;;;;;28.13;31.34;99263.72;6078102;23;20060;-89
2022/08/11 15:52:36;;;;;;;6.00;1.45;;;;;;;27.94;31.88;99256.53;6102020;23;20006;-92
2022/08/11 15:55:04;;;;;;;2.63;1.60;;;;;;;27.91;31.90;99250.97;6077210;23;20036;-92
2022/08/11 16:05:45;;;;;;;2.38;1.33;;;;;;;27.45;32.50;99257.00;6105810;23;20405;-93
2022/08/11 16:08:12;;;;;;;2.90;1.45;;;;;;;27.44;32.78;99261.75;6101753;23;19993;-92
2022/08/11 16:10:37;;;;;;;1.90;1.35;;;;;;;27.44;32.75;99260.97;6101195;23;20012;-93
2022/08/11 16:18:39;;;;;;;1.92;1.38;;;;;;;26.99;33.40;99250.72;6105113;23;20349;-94
2022/08/11 16:21:25;;;;;;;1.88;1.40;;;;;;;26.93;33.33;99251.47;6103054;23;20073;-93
2022/08/11 16:23:51;;;;;;;1.73;1.30;;;;;;;26.82;33.78;99259.66;6101396;23;20009;-94
2022/08/11 16:26:21;;;;;;;6.35;3.15;;;;;;;26.89;33.42;99261.69;6100990;23;20025;-91
2022/08/11 16:28:48;;;;;;;1.50;1.20;;;;;;;26.86;33.88;99268.78;6077502;23;20358;-95
2022/08/11 16:31:13;;;;;;;2.42;1.55;;;;;;;26.77;33.99;99254.47;6078079;23;20002;-95
2022/08/11 16:33:40;;;;;;;1.65;1.15;;;;;;;26.72;34.18;99274.16;6078454;23;20002;-93
2022/08/11 16:38:54;;;;;;;2.13;1.42;;;;;;;26.51;34.29;99258.16;6126600;23;20014;-94
2022/08/11 16:46:58;;;;;;;4.13;1.75;;;;;;;26.41;34.69;99254.09;6101481;23;20052;-94
2022/08/11 16:47:00;;;;;;;3.17;1.70;;;;;;;26.37;34.32;99258.78;6125901;23;20012;-93
2022/08/11 16:49:32;;;;;;;3.70;1.92;;;;;;;26.43;34.17;99287.66;6079755;23;20106;-94
2022/08/11 16:52:02;;;;;;;5.95;1.92;;;;;;;26.24;34.83;99258.25;6101276;23;20005;-93
2022/08/11 16:54:28;;;;;;;4.07;1.50;;;;;;;26.36;34.58;99266.28;6077877;23;20349;-93
2022/08/11 16:56:53;;;;;;;2.92;1.67;;;;;;;26.30;35.16;99265.03;6102102;23;20321;-93
2022/08/11 16:59:32;;;;;;;2.45;1.42;;;;;;;26.29;35.14;99281.97;6100771;23;20037;-93
2022/08/11 17:02:08;;;;;;;2.88;1.35;;;;;;;26.03;35.60;99252.50;6100279;23;20006;-92
2022/08/11 17:13:07;;;;;;;3.45;1.35;;;;;;;26.20;35.72;99268.47;6105419;23;20012;-93
2022/08/11 17:21:03;;;;;;;2.38;1.60;;;;;;;25.90;36.33;99263.75;6105399;23;20077;-93
2022/08/11 17:29:37;;;;;;;3.97;1.90;;;;;;;25.68;37.67;99286.69;6105187;23;20061;-94
2022/08/11 17:37:35;;;;;;;5.53;1.60;;;;;;;25.34;37.63;99281.84;6104919;23;20009;-93
2022/08/11 17:40:04;;;;;;;10.30;3.85;;;;;;;25.47;37.93;99293.47;6076643;23;20357;-94
2022/08/11 17:50:44;;;;;;;2.88;2.08;;;;;;;25.09;38.86;99299.88;6125241;23;20348;-93
2022/08/11 18:01:22;;;;;;;3.40;2.10;;;;;;;24.84;39.67;99292.00;6106980;23;20012;-94
2022/08/11 18:03:48;;;;;;;3.72;2.00;;;;;;;24.93;39.76;99303.56;6102597;23;20002;-95
2022/08/11 18:06:14;;;;;;;9.93;5.70;;;;;;;24.77;40.04;99294.63;6077631;23;20357;-93
